createdAt,value
2022-08-26T00:02:07.458Z,24.90
2022-08-26T00:04:36.827Z,29.80
2022-08-26T00:07:06.009Z,26.00
2022-08-26T00:09:37.326Z,23.00
2022-08-26T00:12:12.350Z,28.80
2022-08-26T00:14:41.823Z,28.40
2022-08-26T00:17:10.115Z,25.60
2022-08-26T00:20:05.881Z,27.40
2022-08-26T00:22:34.151Z,25.60
2022-08-26T00:25:02.365Z,27.20
2022-08-26T00:27:34.029Z,26.30
2022-08-26T00:30:09.477Z,26.40
2022-08-26T00:32:37.953Z,23.70
2022-08-26T00:35:08.838Z,26.60
2022-08-26T00:37:41.955Z,23.90
2022-08-26T00:40:15.451Z,26.60
2022-08-26T00:42:45.842Z,33.00
2022-08-26T00:45:15.406Z,23.20
2022-08-26T00:47:59.219Z,24.30
2022-08-26T00:50:33.317Z,26.20
2022-08-26T00:53:04.890Z,25.10
2022-08-26T00:55:39.697Z,27.50
2022-08-26T00:58:34.306Z,22.60
2022-08-26T01:01:02.739Z,20.70
2022-08-26T01:03:33.837Z,24.60
2022-08-26T01:06:27.530Z,24.70
2022-08-26T01:08:56.229Z,26.60
2022-08-26T01:11:52.925Z,28.50
2022-08-26T01:14:24.857Z,29.30
2022-08-26T01:16:53.209Z,27.30
2022-08-26T01:19:51.813Z,25.90
2022-08-26T01:22:28.161Z,23.60
2022-08-26T01:25:03.597Z,22.60
2022-08-26T01:27:35.674Z,28.10
2022-08-26T01:30:07.815Z,21.00
2022-08-26T01:32:36.595Z,23.20
2022-08-26T01:35:08.106Z,23.80
2022-08-26T01:37:40.464Z,24.70
2022-08-26T01:40:12.666Z,24.80
2022-08-26T01:43:07.483Z,21.60
2022-08-26T01:45:40.635Z,25.30
2022-08-26T01:48:34.654Z,19.20
2022-08-26T01:51:30.502Z,26.20
2022-08-26T01:53:58.778Z,27.90
2022-08-26T01:56:53.727Z,25.70
2022-08-26T01:59:24.667Z,24.10
2022-08-26T02:02:17.998Z,20.90
2022-08-26T02:04:57.479Z,18.60
2022-08-26T02:07:26.870Z,20.70
2022-08-26T02:10:20.796Z,23.10
2022-08-26T02:12:48.981Z,24.00
2022-08-26T02:15:17.306Z,25.10
2022-08-26T02:18:14.159Z,25.90
2022-08-26T02:20:51.718Z,19.30
2022-08-26T02:23:20.101Z,22.60
2022-08-26T02:26:19.892Z,22.60
2022-08-26T02:29:16.065Z,25.60
2022-08-26T02:32:10.682Z,22.30
2022-08-26T02:34:39.836Z,21.30
2022-08-26T02:37:10.425Z,20.30
2022-08-26T02:39:42.848Z,23.00
2022-08-26T02:42:36.149Z,23.10
2022-08-26T02:45:06.624Z,18.70
2022-08-26T02:47:39.597Z,20.20
2022-08-26T02:50:08.138Z,20.90
2022-08-26T02:53:01.897Z,21.90
2022-08-26T02:55:32.569Z,24.60
2022-08-26T02:58:01.925Z,19.90
2022-08-26T03:00:32.823Z,21.40
2022-08-26T03:03:01.189Z,20.50
2022-08-26T03:05:31.553Z,20.50
2022-08-26T03:08:00.648Z,17.10
2022-08-26T03:10:32.292Z,22.70
2022-08-26T03:13:01.166Z,24.50
2022-08-26T03:15:33.511Z,16.20
2022-08-26T03:18:02.690Z,21.50
2022-08-26T03:20:31.146Z,24.00
2022-08-26T03:22:59.971Z,25.20
2022-08-26T03:25:28.257Z,20.30
2022-08-26T03:28:21.815Z,20.60
2022-08-26T03:30:50.713Z,17.90
2022-08-26T03:33:19.617Z,17.50
2022-08-26T03:36:12.597Z,24.10
2022-08-26T03:38:40.825Z,18.10
2022-08-26T03:41:11.185Z,20.20
2022-08-26T03:43:40.768Z,23.20
2022-08-26T03:46:12.131Z,23.50
2022-08-26T03:48:41.185Z,19.60
2022-08-26T03:51:18.392Z,21.40
2022-08-26T03:53:50.713Z,24.10
2022-08-26T03:56:43.982Z,23.90
2022-08-26T03:59:14.865Z,20.00
2022-08-26T04:02:11.603Z,26.40
2022-08-26T04:04:40.397Z,23.70
2022-08-26T04:07:34.157Z,21.20
2022-08-26T04:10:05.829Z,19.30
2022-08-26T04:12:34.289Z,22.90
2022-08-26T04:15:03.745Z,28.80
2022-08-26T04:17:32.093Z,26.50
2022-08-26T04:20:00.248Z,20.80
2022-08-26T04:22:29.376Z,21.50
2022-08-26T04:25:01.583Z,24.00
2022-08-26T04:27:30.048Z,20.10
2022-08-26T04:30:23.940Z,23.10
2022-08-26T04:32:53.791Z,21.20
2022-08-26T04:35:46.951Z,16.10
2022-08-26T04:38:16.993Z,24.10
2022-08-26T04:40:47.749Z,18.50
2022-08-26T04:43:15.901Z,22.40
2022-08-26T04:45:44.236Z,23.60
2022-08-26T04:48:12.429Z,26.70
2022-08-26T04:50:43.839Z,26.70
2022-08-26T04:53:13.534Z,21.20
2022-08-26T04:55:45.120Z,20.70
2022-08-26T04:58:19.058Z,22.90
2022-08-26T05:03:18.680Z,20.00
2022-08-26T05:06:12.416Z,26.90
2022-08-26T05:08:41.255Z,21.80
2022-08-26T05:11:35.855Z,26.00
2022-08-26T05:16:34.244Z,21.20
2022-08-26T05:19:03.650Z,30.90
2022-08-26T05:21:31.809Z,25.50
2022-08-26T05:24:01.091Z,28.80
2022-08-26T05:26:56.433Z,28.60
2022-08-26T05:29:25.418Z,27.40
2022-08-26T05:31:53.697Z,27.70
2022-08-26T05:34:25.778Z,24.70
2022-08-26T05:36:58.672Z,23.90
2022-08-26T05:39:26.991Z,26.30
2022-08-26T05:41:55.183Z,25.20
2022-08-26T05:44:24.076Z,26.40
2022-08-26T05:46:52.603Z,26.40
2022-08-26T05:49:51.338Z,26.60
2022-08-26T05:52:44.883Z,24.00
2022-08-26T05:55:13.076Z,25.80
2022-08-26T05:57:42.791Z,32.20
2022-08-26T06:00:15.542Z,28.70
2022-08-26T06:03:09.235Z,26.40
2022-08-26T06:05:42.154Z,27.40
2022-08-26T06:08:14.192Z,28.90
2022-08-26T06:10:52.937Z,27.90
2022-08-26T06:13:28.049Z,24.80
2022-08-26T06:16:04.616Z,25.60
2022-08-26T06:18:36.596Z,22.60
2022-08-26T06:21:18.523Z,25.40
2022-08-26T06:24:33.478Z,24.90
2022-08-26T06:27:30.666Z,26.70
2022-08-26T06:30:01.153Z,24.90
2022-08-26T06:32:29.325Z,25.20
2022-08-26T06:34:58.065Z,25.70
2022-08-26T06:37:27.446Z,22.70
2022-08-26T06:40:23.515Z,24.90
2022-08-26T06:42:51.761Z,26.30
2022-08-26T06:45:19.977Z,20.80
2022-08-26T06:47:48.117Z,21.70
2022-08-26T06:50:17.797Z,20.80
2022-08-26T06:52:46.677Z,26.60
2022-08-26T06:55:14.997Z,20.10
2022-08-26T06:58:10.049Z,24.80
2022-08-26T07:00:39.026Z,18.10
2022-08-26T07:03:10.737Z,18.20
2022-08-26T07:05:39.181Z,18.20
2022-08-26T07:08:07.308Z,15.50
2022-08-26T07:10:36.413Z,19.00
2022-08-26T07:13:05.879Z,18.20
2022-08-26T07:15:40.396Z,16.80
2022-08-26T07:18:09.351Z,15.70
2022-08-26T07:20:40.477Z,18.90
2022-08-26T07:23:11.841Z,17.20
2022-08-26T07:25:41.671Z,12.40
2022-08-26T07:28:10.071Z,17.30
2022-08-26T07:30:41.055Z,18.60
2022-08-26T07:33:09.988Z,16.70
2022-08-26T07:35:39.499Z,14.40
2022-08-26T07:38:08.412Z,19.10
2022-08-26T07:40:38.034Z,15.00
2022-08-26T07:43:06.368Z,13.70
2022-08-26T07:45:34.668Z,13.70
2022-08-26T07:48:27.991Z,15.80
2022-08-26T07:50:59.327Z,15.30
2022-08-26T07:53:27.536Z,15.20
2022-08-26T07:55:55.714Z,13.00
2022-08-26T07:58:24.179Z,12.90
2022-08-26T08:00:52.862Z,13.40
2022-08-26T08:03:22.082Z,16.20
2022-08-26T08:05:50.499Z,15.40
2022-08-26T08:08:27.884Z,15.00
2022-08-26T08:10:57.618Z,13.10
2022-08-26T08:13:28.226Z,19.70
2022-08-26T08:15:56.423Z,14.70
2022-08-26T08:18:24.639Z,16.50
2022-08-26T08:21:04.708Z,17.20
2022-08-26T08:23:39.825Z,16.60
2022-08-26T08:26:10.973Z,17.00
2022-08-26T08:28:39.804Z,12.70
2022-08-26T08:31:10.083Z,17.50
2022-08-26T08:33:38.312Z,21.80
2022-08-26T08:36:09.168Z,18.30
2022-08-26T08:38:37.492Z,18.80
2022-08-26T08:41:05.773Z,16.20
2022-08-26T08:43:45.057Z,12.10
2022-08-26T08:46:17.056Z,14.90
2022-08-26T08:48:51.301Z,17.80
2022-08-26T08:51:27.260Z,17.50
2022-08-26T08:53:56.996Z,16.80
2022-08-26T08:56:28.254Z,14.60
2022-08-26T08:59:20.436Z,12.90
2022-08-26T09:01:52.519Z,13.80
2022-08-26T09:05:00.598Z,15.80
2022-08-26T09:07:36.380Z,15.30
2022-08-26T09:10:23.144Z,24.60
2022-08-26T09:12:52.364Z,14.70
2022-08-26T09:15:30.683Z,14.40
2022-08-26T09:18:10.872Z,14.70
2022-08-26T09:21:06.525Z,20.20
2022-08-26T09:23:38.349Z,16.30
2022-08-26T09:26:24.697Z,15.50
2022-08-26T09:29:00.967Z,14.50
2022-08-26T09:31:30.994Z,20.20
2022-08-26T09:34:11.967Z,19.40
2022-08-26T09:36:47.571Z,17.90
2022-08-26T09:39:25.799Z,17.10
2022-08-26T09:42:06.202Z,14.30
2022-08-26T09:45:00.602Z,18.20
2022-08-26T09:47:47.331Z,19.20
2022-08-26T09:50:33.515Z,12.30
2022-08-26T09:53:16.067Z,14.50
2022-08-26T09:55:47.882Z,14.00
2022-08-26T09:58:37.950Z,14.90
2022-08-26T10:01:09.777Z,11.20
2022-08-26T10:03:39.814Z,13.10
2022-08-26T10:06:28.810Z,19.80
2022-08-26T10:09:04.537Z,16.80
2022-08-26T10:11:39.895Z,15.30
2022-08-26T10:14:21.521Z,15.20
2022-08-26T10:17:11.779Z,12.00
2022-08-26T10:19:56.275Z,13.00
2022-08-26T10:22:45.818Z,17.10
2022-08-26T10:25:20.414Z,15.50
2022-08-26T10:27:53.754Z,13.80
2022-08-26T10:30:27.771Z,14.30
2022-08-26T10:33:02.395Z,13.20
2022-08-26T10:35:35.258Z,14.30
2022-08-26T10:38:11.531Z,14.10
2022-08-26T10:40:41.219Z,17.50
2022-08-26T10:43:20.228Z,16.10
2022-08-26T10:45:57.313Z,17.20
2022-08-26T10:48:41.241Z,17.10
2022-08-26T10:51:12.911Z,13.30
2022-08-26T10:53:56.056Z,13.80
2022-08-26T10:56:49.184Z,12.80
2022-08-26T10:59:17.919Z,13.10
2022-08-26T11:01:58.208Z,15.80
2022-08-26T11:04:48.126Z,11.20
2022-08-26T11:07:28.603Z,13.00
2022-08-26T11:10:17.764Z,14.00
2022-08-26T11:12:49.136Z,13.30
2022-08-26T11:15:24.793Z,14.50
2022-08-26T11:17:53.056Z,12.90
2022-08-26T11:20:51.055Z,14.70
2022-08-26T11:23:27.343Z,16.60
2022-08-26T11:26:36.273Z,14.40
2022-08-26T11:30:00.180Z,15.40
2022-08-26T11:32:34.487Z,16.20
2022-08-26T11:35:23.022Z,15.20
2022-08-26T11:37:57.528Z,11.80
2022-08-26T11:40:29.911Z,15.70
2022-08-26T11:43:02.811Z,10.70
2022-08-26T11:45:42.332Z,12.40
2022-08-26T11:48:36.778Z,10.70
2022-08-26T11:51:22.154Z,9.40
2022-08-26T11:53:51.412Z,15.80
2022-08-26T11:56:31.804Z,16.40
2022-08-26T11:59:04.338Z,10.10
2022-08-26T12:01:36.818Z,10.20
2022-08-26T12:04:07.783Z,17.70
2022-08-26T12:06:42.034Z,14.80
2022-08-26T12:09:24.887Z,9.30
2022-08-26T12:11:58.045Z,11.20
2022-08-26T12:14:27.759Z,15.10
2022-08-26T12:17:19.321Z,15.30
2022-08-26T12:19:50.650Z,10.30
2022-08-26T12:22:36.093Z,13.50
2022-08-26T12:25:08.764Z,13.40
2022-08-26T12:27:45.532Z,13.30
2022-08-26T12:30:24.550Z,13.60
2022-08-26T12:33:22.195Z,13.50
2022-08-26T12:35:56.620Z,18.70
2022-08-26T12:38:27.211Z,14.40
2022-08-26T12:40:57.198Z,12.80
2022-08-26T12:43:46.009Z,14.40
2022-08-26T12:46:24.851Z,11.50
2022-08-26T12:48:53.175Z,13.80
2022-08-26T12:51:30.643Z,11.80
2022-08-26T12:53:59.740Z,10.40
2022-08-26T12:56:39.696Z,14.80
2022-08-26T12:59:21.575Z,10.60
2022-08-26T13:01:50.160Z,12.70
2022-08-26T13:04:35.543Z,13.50
2022-08-26T13:07:25.243Z,13.30
2022-08-26T13:09:56.539Z,13.80
2022-08-26T13:12:31.099Z,10.20
2022-08-26T13:15:01.501Z,12.20
2022-08-26T13:17:30.556Z,10.70
2022-08-26T13:20:03.832Z,9.30
2022-08-26T13:22:33.761Z,10.40
2022-08-26T13:25:02.056Z,12.90
2022-08-26T13:27:30.766Z,12.20
2022-08-26T13:29:59.975Z,10.20
2022-08-26T13:32:29.029Z,11.60
2022-08-26T13:34:57.940Z,12.70
2022-08-26T13:37:34.345Z,10.00
2022-08-26T13:40:06.717Z,7.70
2022-08-26T13:42:35.037Z,13.20
2022-08-26T13:45:04.101Z,11.70
2022-08-26T13:47:32.515Z,7.60
2022-08-26T13:50:00.769Z,10.90
2022-08-26T13:52:30.688Z,6.90
2022-08-26T13:55:00.739Z,10.60
2022-08-26T13:57:30.392Z,12.10
2022-08-26T13:59:59.665Z,11.70
2022-08-26T14:02:28.531Z,8.60
2022-08-26T14:04:56.868Z,11.00
2022-08-26T14:07:26.452Z,8.90
2022-08-26T14:09:55.088Z,8.90
2022-08-26T14:12:23.379Z,11.30
2022-08-26T14:14:51.625Z,8.80
2022-08-26T14:17:22.932Z,10.20
2022-08-26T14:19:51.772Z,11.40
2022-08-26T14:22:22.219Z,12.40
2022-08-26T14:24:51.255Z,8.00
2022-08-26T14:27:19.515Z,8.80
2022-08-26T14:29:47.963Z,10.90
2022-08-26T14:32:24.925Z,8.50
2022-08-26T14:34:55.323Z,9.40
2022-08-26T14:37:24.238Z,11.70
2022-08-26T14:39:52.794Z,11.90
2022-08-26T14:42:26.775Z,10.60
2022-08-26T14:45:02.287Z,9.60
2022-08-26T14:47:30.747Z,14.10
2022-08-26T14:49:59.040Z,13.20
2022-08-26T14:52:27.879Z,10.10
2022-08-26T14:54:56.103Z,9.00
2022-08-26T14:57:24.424Z,9.70
2022-08-26T14:59:52.659Z,10.30
2022-08-26T15:02:33.102Z,11.40
2022-08-26T15:05:03.023Z,11.80
2022-08-26T15:07:31.303Z,9.40
2022-08-26T15:09:59.899Z,7.50
2022-08-26T15:12:28.198Z,8.20
2022-08-26T15:14:56.424Z,8.90
2022-08-26T15:17:25.042Z,8.60
2022-08-26T15:19:53.259Z,9.20
2022-08-26T15:22:21.503Z,11.00
2022-08-26T15:24:51.858Z,13.30
2022-08-26T15:27:22.106Z,17.80
2022-08-26T15:29:50.433Z,13.00
2022-08-26T15:32:18.692Z,13.40
2022-08-26T15:34:47.105Z,10.10
2022-08-26T15:37:15.356Z,13.80
2022-08-26T15:39:44.349Z,8.50
2022-08-26T15:42:12.601Z,8.30
2022-08-26T15:44:45.610Z,7.90
2022-08-26T15:49:42.029Z,9.30
2022-08-26T15:52:10.770Z,7.90
2022-08-26T15:54:39.817Z,7.80
2022-08-26T15:57:11.471Z,9.90
2022-08-26T15:59:40.786Z,9.10
2022-08-26T16:02:09.828Z,9.90
2022-08-26T16:04:38.288Z,6.50
2022-08-26T16:07:06.609Z,7.50
2022-08-26T16:09:35.193Z,9.90
2022-08-26T16:12:03.724Z,13.20
2022-08-26T16:14:31.986Z,11.40
2022-08-26T16:17:00.280Z,7.80
2022-08-26T16:19:28.782Z,11.80
2022-08-26T16:21:57.005Z,11.00
2022-08-26T16:24:30.175Z,8.90
2022-08-26T16:26:58.946Z,11.20
2022-08-26T16:29:27.839Z,10.80
2022-08-26T16:31:56.150Z,8.90
2022-08-26T16:34:24.467Z,11.00
2022-08-26T16:36:53.284Z,10.80
2022-08-26T16:39:21.542Z,6.10
2022-08-26T16:41:50.372Z,8.90
2022-08-26T16:44:19.506Z,8.80
2022-08-26T16:46:48.299Z,11.50
2022-08-26T16:49:16.710Z,9.50
2022-08-26T16:51:45.970Z,9.80
2022-08-26T16:54:14.178Z,12.90
2022-08-26T16:56:42.431Z,8.50
2022-08-26T16:59:11.711Z,11.70
2022-08-26T17:01:40.205Z,11.30
2022-08-26T17:04:08.821Z,12.60
2022-08-26T17:06:37.396Z,9.50
2022-08-26T17:09:06.018Z,15.00
2022-08-26T17:11:35.576Z,11.00
2022-08-26T17:14:04.620Z,9.90
2022-08-26T17:16:32.909Z,5.60
2022-08-26T17:19:02.726Z,7.30
2022-08-26T17:21:33.550Z,9.00
2022-08-26T17:24:02.278Z,12.90
2022-08-26T17:26:30.720Z,14.90
2022-08-26T17:29:00.194Z,13.10
2022-08-26T17:31:28.496Z,9.50
2022-08-26T17:33:56.854Z,9.00
2022-08-26T17:36:28.195Z,10.40
2022-08-26T17:38:58.335Z,9.00
2022-08-26T17:41:27.642Z,10.00
2022-08-26T17:43:56.695Z,13.10
2022-08-26T17:46:25.108Z,12.30
2022-08-26T17:48:53.324Z,8.80
2022-08-26T17:51:23.031Z,12.40
2022-08-26T17:53:52.582Z,15.90
2022-08-26T17:56:25.835Z,16.40
2022-08-26T17:58:56.901Z,14.30
2022-08-26T18:01:27.726Z,13.40
2022-08-26T18:04:00.257Z,11.10
2022-08-26T18:06:30.738Z,11.40
2022-08-26T18:09:00.078Z,14.40
2022-08-26T18:11:31.202Z,14.00
2022-08-26T18:14:00.447Z,10.60
2022-08-26T18:16:31.821Z,13.20
2022-08-26T18:19:00.627Z,12.00
2022-08-26T18:21:28.970Z,15.80
2022-08-26T18:23:57.480Z,13.50
2022-08-26T18:26:35.707Z,15.50
2022-08-26T18:29:05.192Z,10.40
2022-08-26T18:31:34.487Z,11.90
2022-08-26T18:34:03.232Z,8.80
2022-08-26T18:36:35.215Z,9.70
2022-08-26T18:39:05.419Z,10.30
2022-08-26T18:41:42.706Z,9.60
2022-08-26T18:44:13.595Z,11.70
2022-08-26T18:46:42.599Z,10.20
2022-08-26T18:49:12.699Z,11.90
2022-08-26T18:51:45.080Z,7.80
2022-08-26T18:54:13.665Z,11.00
2022-08-26T18:56:42.572Z,11.40
2022-08-26T18:59:11.767Z,11.40
2022-08-26T19:01:42.477Z,9.30
2022-08-26T19:04:12.885Z,11.50
2022-08-26T19:06:47.010Z,11.20
2022-08-26T19:09:17.962Z,9.60
2022-08-26T19:11:48.918Z,12.10
2022-08-26T19:14:18.828Z,12.00
2022-08-26T19:16:49.714Z,9.50
2022-08-26T19:19:18.980Z,10.90
2022-08-26T19:21:47.309Z,12.30
2022-08-26T19:24:17.690Z,10.20
2022-08-26T19:26:49.649Z,12.00
2022-08-26T19:29:22.857Z,11.70
2022-08-26T19:31:51.084Z,15.60
2022-08-26T19:34:20.931Z,6.80
2022-08-26T19:36:51.847Z,9.30
2022-08-26T19:39:21.277Z,8.80
2022-08-26T19:41:49.496Z,11.60
2022-08-26T19:44:39.084Z,8.30
2022-08-26T19:47:09.417Z,14.40
2022-08-26T19:49:39.318Z,11.80
2022-08-26T19:52:07.794Z,9.30
2022-08-26T19:54:36.373Z,10.10
2022-08-26T19:57:05.817Z,12.50
2022-08-26T19:59:36.230Z,11.10
2022-08-26T20:02:09.983Z,6.30
2022-08-26T20:04:39.484Z,9.00
2022-08-26T20:07:09.243Z,11.30
2022-08-26T20:09:38.572Z,12.00
2022-08-26T20:12:07.284Z,8.00
2022-08-26T20:14:36.420Z,7.00
2022-08-26T20:17:05.799Z,16.30
2022-08-26T20:19:53.076Z,9.50
2022-08-26T20:22:22.136Z,8.90
2022-08-26T20:24:50.767Z,8.70
2022-08-26T20:27:19.235Z,9.00
2022-08-26T20:29:47.428Z,10.20
2022-08-26T20:32:15.717Z,8.30
2022-08-26T20:34:44.017Z,11.60
2022-08-26T20:37:12.501Z,9.90
2022-08-26T20:39:41.612Z,8.70
2022-08-26T20:42:20.418Z,7.10
2022-08-26T20:44:54.298Z,8.20
2022-08-26T20:47:23.521Z,12.90
2022-08-26T20:49:52.297Z,9.40
2022-08-26T20:52:20.912Z,9.10
2022-08-26T20:54:49.164Z,10.40
2022-08-26T20:57:17.516Z,9.80
2022-08-26T20:59:45.756Z,9.90
2022-08-26T21:02:14.024Z,8.10
2022-08-26T21:04:42.335Z,9.90
2022-08-26T21:07:10.632Z,8.40
2022-08-26T21:09:38.812Z,7.90
2022-08-26T21:12:07.424Z,8.80
2022-08-26T21:14:35.649Z,7.80
2022-08-26T21:17:04.540Z,10.80
2022-08-26T21:19:32.728Z,7.90
2022-08-26T21:22:01.033Z,11.70
2022-08-26T21:24:29.404Z,8.90
2022-08-26T21:26:57.977Z,8.30
2022-08-26T21:29:26.254Z,9.90
2022-08-26T21:31:54.596Z,10.40
2022-08-26T21:34:22.905Z,10.10
2022-08-26T21:36:51.109Z,10.10
2022-08-26T21:39:19.410Z,5.30
2022-08-26T21:41:48.091Z,9.10
2022-08-26T21:44:18.408Z,11.00
2022-08-26T21:46:47.191Z,12.20
2022-08-26T21:49:16.513Z,7.30
2022-08-26T21:51:47.141Z,11.40
2022-08-26T21:54:16.041Z,13.50
2022-08-26T21:56:47.930Z,7.10
2022-08-26T21:59:18.758Z,10.80
2022-08-26T22:01:49.239Z,8.70
2022-08-26T22:04:18.442Z,9.90
2022-08-26T22:06:49.642Z,10.30
2022-08-26T22:09:22.783Z,9.90
2022-08-26T22:11:52.304Z,10.30
2022-08-26T22:14:30.511Z,7.70
2022-08-26T22:17:00.165Z,7.90
2022-08-26T22:19:30.026Z,10.50
2022-08-26T22:21:58.654Z,8.10
2022-08-26T22:24:27.790Z,8.00
2022-08-26T22:26:57.042Z,10.40
2022-08-26T22:29:25.894Z,7.30
2022-08-26T22:31:54.219Z,9.30
2022-08-26T22:34:23.410Z,9.40
2022-08-26T22:36:51.690Z,7.20
2022-08-26T22:39:23.582Z,15.40
2022-08-26T22:41:54.051Z,9.60
2022-08-26T22:44:22.791Z,13.60
2022-08-26T22:46:57.148Z,9.60
2022-08-26T22:49:25.562Z,12.20
2022-08-26T22:51:53.870Z,11.20
2022-08-26T22:54:22.087Z,15.10
2022-08-26T22:56:50.394Z,9.30
2022-08-26T22:59:18.842Z,11.60
2022-08-26T23:01:48.235Z,8.60
2022-08-26T23:04:16.444Z,10.00
2022-08-26T23:06:47.490Z,10.30
2022-08-26T23:09:18.864Z,11.80
2022-08-26T23:12:13.287Z,12.30
2022-08-26T23:14:41.680Z,9.50
2022-08-26T23:17:12.098Z,9.20
2022-08-26T23:19:40.309Z,10.20
2022-08-26T23:22:08.718Z,7.80
2022-08-26T23:24:37.215Z,7.80
2022-08-26T23:27:05.600Z,7.00
2022-08-26T23:29:33.883Z,15.50
2022-08-26T23:32:04.802Z,7.30
2022-08-26T23:34:52.267Z,11.50
2022-08-26T23:37:21.995Z,10.10
2022-08-26T23:39:51.746Z,10.60
2022-08-26T23:42:20.082Z,10.80
2022-08-26T23:44:49.568Z,12.30
2022-08-26T23:47:18.135Z,12.50
2022-08-26T23:49:46.336Z,7.90
2022-08-26T23:52:33.151Z,8.30
2022-08-26T23:55:01.407Z,11.00
2022-08-26T23:57:29.607Z,7.60
2022-08-26T23:59:58.117Z,9.90
